createdAt,value
2023-05-19T00:05:59.338Z,6.35
2023-05-19T00:11:02.790Z,6.30
2023-05-19T00:16:06.499Z,4.85
2023-05-19T00:21:08.801Z,7.75
2023-05-19T00:26:11.266Z,7.10
2023-05-19T00:31:13.683Z,3.45
2023-05-19T00:36:16.102Z,5.07
2023-05-19T00:41:18.709Z,4.53
2023-05-19T00:46:21.148Z,5.05
2023-05-19T00:51:26.685Z,4.50
2023-05-19T00:56:29.231Z,7.00
2023-05-19T01:01:32.625Z,4.35
2023-05-19T01:06:35.197Z,7.25
2023-05-19T01:11:37.465Z,6.63
2023-05-19T01:17:09.231Z,6.05
2023-05-19T01:22:29.598Z,5.40
2023-05-19T01:28:07.243Z,7.30
2023-05-19T01:33:14.559Z,5.35
2023-05-19T01:38:19.364Z,5.35
2023-05-19T01:43:24.674Z,6.82
2023-05-19T01:48:28.103Z,5.07
2023-05-19T01:53:30.374Z,7.07
2023-05-19T01:58:44.366Z,6.13
2023-05-19T02:04:20.623Z,6.70
2023-05-19T02:09:50.715Z,5.50
2023-05-19T02:15:16.941Z,4.60
2023-05-19T02:20:22.554Z,4.07
2023-05-19T02:25:25.008Z,5.40
2023-05-19T02:30:27.577Z,8.25
2023-05-19T02:35:29.922Z,8.95
2023-05-19T02:40:32.371Z,2.78
2023-05-19T02:45:34.732Z,5.10
2023-05-19T02:50:37.233Z,5.07
2023-05-19T02:55:39.661Z,4.10
2023-05-19T03:00:41.905Z,15.13
2023-05-19T03:05:44.416Z,4.15
2023-05-19T03:10:47.405Z,3.80
2023-05-19T03:15:51.489Z,7.63
2023-05-19T03:20:54.457Z,7.53
2023-05-19T03:25:56.932Z,8.48
2023-05-19T03:30:59.262Z,5.53
2023-05-19T03:36:01.692Z,7.03
2023-05-19T03:41:04.212Z,4.95
2023-05-19T03:46:07.086Z,5.82
2023-05-19T03:51:09.540Z,11.27
2023-05-19T03:56:15.209Z,10.82
2023-05-19T04:01:17.930Z,11.23
2023-05-19T04:06:20.535Z,10.52
2023-05-19T04:11:22.911Z,6.63
2023-05-19T04:16:25.421Z,9.63
2023-05-19T04:21:28.064Z,4.00
2023-05-19T04:26:31.435Z,5.72
2023-05-19T04:31:34.870Z,5.82
2023-05-19T04:36:38.325Z,8.00
2023-05-19T04:41:40.992Z,4.78
2023-05-19T04:46:45.627Z,11.70
2023-05-19T04:51:51.837Z,15.43
2023-05-19T04:56:55.072Z,9.00
2023-05-19T05:01:57.794Z,16.15
2023-05-19T05:07:00.296Z,10.85
2023-05-19T05:12:03.726Z,8.68
2023-05-19T05:17:06.602Z,7.18
2023-05-19T05:22:09.200Z,11.82
2023-05-19T05:27:11.541Z,8.07
2023-05-19T05:32:13.898Z,5.47
2023-05-19T05:37:16.351Z,9.30
2023-05-19T05:42:20.741Z,6.72
2023-05-19T05:47:23.329Z,11.43
2023-05-19T05:52:31.101Z,8.15
2023-05-19T05:57:35.742Z,7.70
2023-05-19T06:02:38.425Z,4.75
2023-05-19T06:07:41.575Z,7.60
2023-05-19T06:12:43.901Z,7.15
2023-05-19T06:17:46.336Z,6.97
2023-05-19T06:22:48.666Z,11.38
2023-05-19T06:27:51.197Z,4.00
2023-05-19T06:32:53.756Z,4.88
2023-05-19T06:37:58.952Z,5.60
2023-05-19T06:43:01.366Z,3.88
2023-05-19T06:48:04.328Z,4.70
2023-05-19T06:53:06.700Z,6.30
2023-05-19T06:58:09.075Z,5.22
2023-05-19T07:03:11.485Z,3.97
2023-05-19T07:08:13.996Z,2.97
2023-05-19T07:13:16.336Z,2.80
2023-05-19T07:18:18.991Z,1.85
2023-05-19T07:23:21.493Z,3.33
2023-05-19T07:28:23.813Z,4.05
2023-05-19T07:33:27.393Z,1.70
2023-05-19T07:38:31.906Z,2.17
2023-05-19T07:43:34.640Z,2.67
2023-05-19T07:48:37.563Z,4.80
2023-05-19T07:53:40.186Z,3.55
2023-05-19T07:58:42.405Z,2.20
2023-05-19T08:03:44.844Z,3.13
2023-05-19T08:08:47.946Z,5.13
2023-05-19T08:13:50.258Z,1.60
2023-05-19T08:18:52.777Z,1.85
2023-05-19T08:23:55.186Z,1.65
2023-05-19T08:28:57.502Z,5.50
2023-05-19T08:33:59.895Z,6.15
2023-05-19T08:39:02.426Z,4.30
2023-05-19T08:44:05.750Z,2.45
2023-05-19T08:49:14.412Z,1.63
2023-05-19T08:54:18.507Z,2.60
2023-05-19T08:59:22.620Z,3.45
2023-05-19T09:04:30.970Z,2.67
2023-05-19T09:09:33.649Z,1.90
2023-05-19T09:14:36.785Z,13.65
2023-05-19T09:19:45.175Z,2.20
2023-05-19T09:24:48.539Z,3.55
2023-05-19T09:29:51.411Z,1.48
2023-05-19T09:34:57.495Z,2.58
2023-05-19T09:40:00.406Z,2.70
2023-05-19T09:45:04.022Z,1.38
2023-05-19T09:50:11.205Z,5.82
2023-05-19T09:55:14.348Z,2.28
2023-05-19T10:00:20.048Z,8.05
2023-05-19T10:05:23.133Z,4.03
2023-05-19T10:10:26.010Z,3.45
2023-05-19T10:15:28.851Z,1.98
2023-05-19T10:20:35.465Z,2.58
2023-05-19T10:25:39.318Z,2.67
2023-05-19T10:30:51.385Z,1.98
2023-05-19T10:36:21.668Z,3.72
2023-05-19T10:41:48.120Z,5.53
2023-05-19T10:46:50.540Z,2.45
2023-05-19T10:51:57.281Z,4.15
2023-05-19T10:56:59.672Z,3.17
2023-05-19T11:02:09.397Z,2.22
2023-05-19T11:07:16.048Z,1.52
2023-05-19T11:12:25.387Z,3.55
2023-05-19T11:17:29.610Z,1.95
2023-05-19T11:22:36.444Z,3.97
2023-05-19T11:27:40.842Z,2.40
2023-05-19T11:32:44.700Z,3.95
2023-05-19T11:37:49.613Z,2.58
2023-05-19T11:42:52.063Z,5.63
2023-05-19T11:48:02.356Z,2.45
2023-05-19T11:53:05.766Z,1.85
2023-05-19T11:58:08.684Z,1.88
2023-05-19T12:03:11.235Z,2.38
2023-05-19T12:08:13.929Z,2.03
2023-05-19T12:13:16.656Z,1.80
2023-05-19T12:18:20.199Z,2.72
2023-05-19T12:23:23.374Z,3.08
2023-05-19T12:28:26.219Z,2.55
2023-05-19T12:33:28.573Z,11.73
2023-05-19T12:38:30.935Z,1.77
2023-05-19T12:43:33.918Z,6.47
2023-05-19T12:48:36.590Z,2.80
2023-05-19T12:53:39.144Z,2.72
2023-05-19T12:58:44.517Z,6.15
2023-05-19T13:03:47.159Z,2.95
2023-05-19T13:08:49.888Z,3.53
2023-05-19T13:13:52.267Z,4.45
2023-05-19T13:18:54.931Z,5.30
2023-05-19T13:23:57.703Z,4.13
2023-05-19T13:29:00.052Z,2.95
2023-05-19T13:34:03.155Z,5.03
2023-05-19T13:39:05.412Z,6.18
2023-05-19T13:44:07.869Z,4.07
2023-05-19T13:49:10.244Z,6.50
2023-05-19T13:54:12.550Z,2.78
2023-05-19T13:59:15.229Z,5.20
2023-05-19T14:04:19.918Z,2.53
2023-05-19T14:09:22.289Z,3.83
2023-05-19T14:14:25.337Z,4.85
2023-05-19T14:19:30.556Z,3.53
2023-05-19T14:24:33.071Z,3.22
2023-05-19T14:29:35.849Z,4.07
2023-05-19T14:34:38.389Z,4.05
2023-05-19T14:39:40.701Z,6.00
2023-05-19T14:44:42.933Z,3.85
2023-05-19T14:49:45.606Z,4.15
2023-05-19T14:54:48.059Z,5.90
2023-05-19T14:59:50.473Z,6.28
2023-05-19T15:04:52.820Z,5.95
2023-05-19T15:09:55.686Z,7.40
2023-05-19T15:14:58.016Z,6.10
2023-05-19T15:20:00.323Z,5.00
2023-05-19T15:25:02.632Z,3.58
2023-05-19T15:30:06.281Z,5.93
2023-05-19T15:35:09.161Z,6.07
2023-05-19T15:40:12.301Z,3.83
2023-05-19T15:45:14.748Z,2.97
2023-05-19T15:50:17.065Z,4.18
2023-05-19T15:55:19.540Z,2.97
2023-05-19T16:00:22.142Z,9.90
2023-05-19T16:05:24.477Z,3.92
2023-05-19T16:10:27.234Z,4.93
2023-05-19T16:15:30.064Z,2.65
2023-05-19T16:20:32.614Z,3.13
2023-05-19T16:25:35.030Z,4.13
2023-05-19T16:30:37.343Z,3.88
2023-05-19T16:35:40.061Z,4.32
2023-05-19T16:40:42.406Z,6.97
2023-05-19T16:45:44.643Z,4.13
2023-05-19T16:50:49.519Z,8.35
2023-05-19T16:55:51.902Z,10.35
2023-05-19T17:00:54.306Z,7.13
2023-05-19T17:05:56.666Z,10.13
2023-05-19T17:10:59.071Z,7.45
2023-05-19T17:16:01.953Z,9.38
2023-05-19T17:21:05.844Z,5.00
2023-05-19T17:26:08.320Z,9.98
2023-05-19T17:31:12.628Z,8.25
2023-05-19T17:36:15.191Z,8.20
2023-05-19T17:41:17.603Z,6.72
2023-05-19T17:46:20.020Z,10.05
2023-05-19T17:51:22.572Z,17.17
2023-05-19T17:56:25.965Z,5.75
2023-05-19T18:01:28.567Z,6.40
2023-05-19T18:06:32.378Z,8.82
2023-05-19T18:11:34.781Z,14.63
2023-05-19T18:16:37.254Z,7.18
2023-05-19T18:21:39.615Z,14.20
2023-05-19T18:26:42.441Z,10.30
2023-05-19T18:31:44.841Z,9.77
2023-05-19T18:36:47.251Z,8.25
2023-05-19T18:41:50.217Z,7.95
2023-05-19T18:46:52.496Z,6.72
2023-05-19T18:51:54.952Z,11.38
2023-05-19T18:56:57.318Z,8.88
2023-05-19T19:01:59.502Z,10.55
2023-05-19T19:07:01.933Z,9.18
2023-05-19T19:12:04.409Z,12.35
2023-05-19T19:17:06.819Z,16.17
2023-05-19T19:22:09.304Z,12.00
2023-05-19T19:27:12.126Z,15.63
2023-05-19T19:32:14.936Z,14.05
2023-05-19T19:37:17.320Z,10.05
2023-05-19T19:42:22.374Z,15.85
2023-05-19T19:47:24.870Z,12.27
2023-05-19T19:52:27.438Z,8.02
2023-05-19T19:57:32.044Z,18.23
2023-05-19T20:02:37.162Z,13.15
2023-05-19T20:07:42.656Z,14.88
2023-05-19T20:12:45.506Z,16.65
2023-05-19T20:17:47.842Z,26.73
2023-05-19T20:22:50.438Z,18.70
2023-05-19T20:27:52.770Z,23.77
2023-05-19T20:32:55.118Z,13.25
2023-05-19T20:37:57.628Z,44.13
2023-05-19T20:43:00.289Z,19.42
2023-05-19T20:48:04.341Z,21.50
2023-05-19T20:53:07.849Z,19.02
2023-05-19T20:58:10.393Z,24.95
2023-05-19T21:03:12.711Z,20.58
2023-05-19T21:08:15.321Z,26.10
2023-05-19T21:13:21.483Z,15.48
2023-05-19T21:18:24.230Z,20.70
2023-05-19T21:23:27.537Z,16.75
2023-05-19T21:28:30.627Z,14.70
2023-05-19T21:33:33.409Z,9.85
2023-05-19T21:38:35.804Z,13.30
2023-05-19T21:43:38.159Z,19.42
2023-05-19T21:48:40.659Z,14.52
2023-05-19T21:53:43.047Z,15.93
2023-05-19T21:58:45.621Z,11.65
2023-05-19T22:03:48.370Z,10.35
2023-05-19T22:08:50.826Z,10.10
2023-05-19T22:13:55.230Z,14.65
2023-05-19T22:18:58.593Z,11.57
2023-05-19T22:24:01.161Z,10.85
2023-05-19T22:29:03.891Z,12.27
2023-05-19T22:34:09.309Z,16.88
2023-05-19T22:39:12.912Z,12.27
2023-05-19T22:44:16.625Z,13.18
2023-05-19T22:49:25.701Z,10.30
2023-05-19T22:54:28.109Z,8.65
2023-05-19T22:59:30.553Z,10.50
2023-05-19T23:04:34.025Z,12.50
2023-05-19T23:09:36.670Z,12.35
2023-05-19T23:14:39.097Z,9.32
2023-05-19T23:19:50.414Z,11.05
2023-05-19T23:24:52.919Z,11.77
2023-05-19T23:29:55.345Z,13.55
2023-05-19T23:34:57.678Z,12.73
2023-05-19T23:40:00.122Z,9.98
2023-05-19T23:45:02.692Z,14.05
2023-05-19T23:50:05.292Z,9.38
2023-05-19T23:55:08.412Z,11.90
